createdAt,value
2019-03-27T00:04:31.607Z,13
2019-03-27T00:09:33.679Z,15
2019-03-27T00:14:36.116Z,13
2019-03-27T00:19:38.793Z,12
2019-03-27T00:24:41.082Z,13
2019-03-27T00:29:43.524Z,13
2019-03-27T00:34:46.269Z,13
2019-03-27T00:39:48.439Z,13
2019-03-27T00:44:50.930Z,12
2019-03-27T00:49:53.408Z,14
2019-03-27T00:54:55.882Z,12
2019-03-27T00:59:58.329Z,11
2019-03-27T01:05:01.044Z,13
2019-03-27T01:10:03.302Z,13
2019-03-27T01:15:05.669Z,11
2019-03-27T01:20:08.260Z,13
2019-03-27T01:25:10.626Z,11
2019-03-27T01:30:13.070Z,12
2019-03-27T01:35:15.835Z,12
2019-03-27T01:40:17.984Z,13
2019-03-27T01:45:20.450Z,12
2019-03-27T01:50:23.081Z,12
2019-03-27T01:55:25.360Z,12
2019-03-27T02:00:27.850Z,13
2019-03-27T02:05:30.608Z,11
2019-03-27T02:10:32.771Z,10
2019-03-27T02:15:35.362Z,10
2019-03-27T02:20:37.893Z,10
2019-03-27T02:25:40.133Z,9
2019-03-27T02:30:42.603Z,10
2019-03-27T02:35:45.383Z,9
2019-03-27T02:40:47.571Z,10
2019-03-27T02:45:50.002Z,8
2019-03-27T02:50:52.544Z,8
2019-03-27T02:55:54.907Z,7
2019-03-27T03:00:57.392Z,6
2019-03-27T03:06:00.195Z,5
2019-03-27T03:11:02.455Z,6
2019-03-27T03:16:04.793Z,5
2019-03-27T03:21:07.341Z,5
2019-03-27T03:26:09.699Z,6
2019-03-27T03:31:12.209Z,9
2019-03-27T03:36:14.632Z,9
2019-03-27T03:41:17.126Z,11
2019-03-27T03:46:19.615Z,11
2019-03-27T03:51:22.109Z,12
2019-03-27T03:56:24.493Z,14
2019-03-27T04:01:27.096Z,14
2019-03-27T04:06:29.688Z,15
2019-03-27T04:11:31.872Z,14
2019-03-27T04:16:34.345Z,13
2019-03-27T04:21:36.907Z,13
2019-03-27T04:26:39.287Z,12
2019-03-27T04:31:41.727Z,13
2019-03-27T04:36:44.486Z,13
2019-03-27T04:41:46.676Z,12
2019-03-27T04:46:49.118Z,12
2019-03-27T04:51:51.647Z,12
2019-03-27T04:56:54.050Z,11
2019-03-27T05:01:56.519Z,12
2019-03-27T05:06:59.258Z,14
2019-03-27T05:12:01.402Z,12
2019-03-27T05:17:03.869Z,10
2019-03-27T05:22:06.410Z,9
2019-03-27T05:27:08.847Z,10
2019-03-27T05:32:11.286Z,10
2019-03-27T05:37:14.022Z,11
2019-03-27T05:42:16.270Z,11
2019-03-27T05:47:18.657Z,11
2019-03-27T05:52:21.222Z,12
2019-03-27T05:57:23.584Z,12
2019-03-27T06:02:26.040Z,15
2019-03-27T06:07:28.791Z,13
2019-03-27T06:12:31.046Z,14
2019-03-27T06:17:33.514Z,12
2019-03-27T06:22:35.969Z,12
2019-03-27T06:27:38.335Z,13
2019-03-27T06:32:40.875Z,12
2019-03-27T06:37:43.750Z,14
2019-03-27T06:42:45.731Z,13
2019-03-27T06:47:48.191Z,13
2019-03-27T06:52:50.671Z,12
2019-03-27T06:57:53.130Z,14
2019-03-27T07:02:55.562Z,12
2019-03-27T07:07:58.050Z,14
2019-03-27T07:13:00.492Z,14
2019-03-27T07:18:02.954Z,14
2019-03-27T07:23:05.483Z,11
2019-03-27T07:28:07.917Z,9
2019-03-27T07:33:10.316Z,7
2019-03-27T07:38:13.202Z,8
2019-03-27T07:48:17.698Z,8
2019-03-27T07:53:22.409Z,12
2019-03-27T07:58:22.594Z,12
2019-03-27T08:03:25.059Z,13
2019-03-27T08:08:27.931Z,12
2019-03-27T08:13:30.062Z,15
2019-03-27T08:18:32.696Z,14
2019-03-27T08:23:35.047Z,12
2019-03-27T08:28:37.357Z,13
2019-03-27T08:33:39.848Z,14
2019-03-27T08:38:42.600Z,16
2019-03-27T08:43:44.719Z,17
2019-03-27T08:48:47.185Z,19
2019-03-27T08:53:49.742Z,18
2019-03-27T08:58:52.502Z,17
2019-03-27T09:03:54.591Z,19
2019-03-27T09:08:57.023Z,19
2019-03-27T09:13:59.481Z,19
2019-03-27T09:19:01.985Z,20
2019-03-27T09:24:04.462Z,19
2019-03-27T09:29:08.340Z,18
2019-03-27T09:34:09.307Z,16
2019-03-27T09:39:11.752Z,16
2019-03-27T09:44:14.220Z,14
2019-03-27T09:49:16.714Z,14
2019-03-27T09:54:19.149Z,16
2019-03-27T09:59:21.604Z,15
2019-03-27T10:04:24.141Z,16
2019-03-27T10:09:26.595Z,16
2019-03-27T10:14:28.988Z,17
2019-03-27T10:19:31.516Z,18
2019-03-27T10:24:33.876Z,18
2019-03-27T10:29:36.344Z,14
2019-03-27T10:34:38.871Z,13
2019-03-27T10:39:41.374Z,12
2019-03-27T10:44:43.743Z,11
2019-03-27T10:49:46.231Z,10
2019-03-27T10:54:48.629Z,10
2019-03-27T11:04:53.948Z,9
2019-03-27T11:09:56.110Z,9
2019-03-27T11:14:58.449Z,11
2019-03-27T11:20:00.938Z,13
2019-03-27T11:25:03.413Z,12
2019-03-27T11:30:05.848Z,12
2019-03-27T11:35:08.288Z,11
2019-03-27T11:40:10.757Z,12
2019-03-27T11:45:13.208Z,12
2019-03-27T11:50:15.655Z,13
2019-03-27T11:55:18.204Z,11
2019-03-27T12:00:20.578Z,11
2019-03-27T12:05:23.105Z,10
2019-03-27T12:10:25.531Z,10
2019-03-27T12:15:27.941Z,10
2019-03-27T12:20:30.429Z,8
2019-03-27T12:25:32.922Z,8
2019-03-27T12:30:35.345Z,10
2019-03-27T12:35:37.803Z,10
2019-03-27T12:40:40.248Z,9
2019-03-27T12:45:42.756Z,9
2019-03-27T12:50:45.159Z,8
2019-03-27T12:55:47.680Z,8
2019-03-27T13:00:50.060Z,8
2019-03-27T13:05:52.548Z,9
2019-03-27T13:10:55.004Z,10
2019-03-27T13:15:57.424Z,9
2019-03-27T13:20:59.980Z,9
2019-03-27T13:26:02.457Z,8
2019-03-27T13:31:04.819Z,7
2019-03-27T13:36:07.321Z,6
2019-03-27T13:41:09.777Z,6
2019-03-27T13:46:12.186Z,8
2019-03-27T13:51:14.818Z,7
2019-03-27T13:56:17.109Z,7
2019-03-27T14:01:19.656Z,7
2019-03-27T14:06:22.009Z,7
2019-03-27T14:11:24.464Z,6
2019-03-27T14:16:26.938Z,7
2019-03-27T14:21:29.388Z,7
2019-03-27T14:26:44.259Z,7
2019-03-27T14:31:34.323Z,7
2019-03-27T14:36:36.972Z,5
2019-03-27T14:41:39.213Z,6
2019-03-27T14:46:41.707Z,7
2019-03-27T14:51:44.239Z,7
2019-03-27T14:56:46.785Z,7
2019-03-27T15:01:49.072Z,8
2019-03-27T15:06:51.766Z,7
2019-03-27T15:11:53.997Z,9
2019-03-27T15:16:56.485Z,9
2019-03-27T15:21:58.875Z,8
2019-03-27T15:27:01.372Z,8
2019-03-27T15:32:03.872Z,7
2019-03-27T15:37:06.281Z,6
2019-03-27T15:47:11.157Z,5
2019-03-27T15:52:13.700Z,6
2019-03-27T15:57:16.066Z,7
2019-03-27T16:02:18.897Z,4
2019-03-27T16:07:20.973Z,5
2019-03-27T16:12:23.456Z,5
2019-03-27T16:17:25.910Z,6
2019-03-27T16:22:28.404Z,6
2019-03-27T16:27:30.886Z,5
2019-03-27T16:32:33.608Z,6
2019-03-27T16:37:35.755Z,6
2019-03-27T16:42:38.189Z,6
2019-03-27T16:47:40.664Z,6
2019-03-27T16:52:43.098Z,6
2019-03-27T16:57:45.579Z,5
2019-03-27T17:02:48.358Z,6
2019-03-27T17:07:50.474Z,6
2019-03-27T17:12:52.936Z,7
2019-03-27T17:17:55.409Z,6
2019-03-27T17:22:57.852Z,8
2019-03-27T17:28:00.294Z,10
2019-03-27T17:33:02.764Z,10
2019-03-27T17:38:05.246Z,11
2019-03-27T17:43:07.738Z,10
2019-03-27T17:48:10.135Z,9
2019-03-27T17:53:12.585Z,10
2019-03-27T17:58:15.343Z,8
2019-03-27T18:03:17.629Z,9
2019-03-27T18:08:20.023Z,8
2019-03-27T18:13:22.479Z,7
2019-03-27T18:18:24.890Z,9
2019-03-27T18:23:27.337Z,8
2019-03-27T18:28:30.145Z,8
2019-03-27T18:33:33.986Z,7
2019-03-27T18:38:34.763Z,7
2019-03-27T18:43:37.240Z,11
2019-03-27T18:48:39.985Z,15
2019-03-27T18:53:42.082Z,10
2019-03-27T18:58:45.030Z,10
2019-03-27T19:03:47.042Z,8
2019-03-27T19:08:49.457Z,10
2019-03-27T19:13:51.957Z,9
2019-03-27T19:18:54.483Z,7
2019-03-27T19:23:56.933Z,8
2019-03-27T19:28:59.678Z,8
2019-03-27T19:34:01.867Z,11
2019-03-27T19:39:04.274Z,13
2019-03-27T19:44:06.711Z,9
2019-03-27T19:49:09.142Z,11
2019-03-27T19:54:11.606Z,10
2019-03-27T19:59:14.335Z,9
2019-03-27T20:04:16.577Z,11
2019-03-27T20:09:19.006Z,10
2019-03-27T20:14:21.434Z,12
2019-03-27T20:19:23.895Z,14
2019-03-27T20:24:40.056Z,14
2019-03-27T20:29:29.118Z,11
2019-03-27T20:34:31.377Z,10
2019-03-27T20:39:33.747Z,10
2019-03-27T20:44:36.194Z,10
2019-03-27T20:49:38.734Z,9
2019-03-27T20:54:53.828Z,9
2019-03-27T20:59:43.871Z,9
2019-03-27T21:04:46.033Z,10
2019-03-27T21:09:48.468Z,12
2019-03-27T21:14:51.021Z,12
2019-03-27T21:19:53.393Z,10
2019-03-27T21:25:07.855Z,11
2019-03-27T21:30:03.353Z,11
2019-03-27T21:40:03.267Z,12
2019-03-27T21:45:05.717Z,12
2019-03-27T21:55:21.719Z,9
2019-03-27T22:00:13.046Z,10
2019-03-27T22:05:15.502Z,9
2019-03-27T22:10:17.971Z,11
2019-03-27T22:15:20.420Z,10
2019-03-27T22:20:22.922Z,11
2019-03-27T22:25:35.146Z,9
2019-03-27T22:30:27.808Z,10
2019-03-27T22:35:30.250Z,10
2019-03-27T22:40:32.767Z,10
2019-03-27T22:45:35.161Z,10
2019-03-27T22:50:37.625Z,9
2019-03-27T22:55:49.349Z,9
2019-03-27T23:00:42.585Z,11
2019-03-27T23:05:45.053Z,10
2019-03-27T23:10:47.535Z,10
2019-03-27T23:15:49.932Z,10
2019-03-27T23:20:52.381Z,10
2019-03-27T23:26:02.727Z,10
2019-03-27T23:30:57.283Z,11
2019-03-27T23:35:59.733Z,11
2019-03-27T23:41:02.237Z,11
2019-03-27T23:46:04.769Z,11
2019-03-27T23:51:07.121Z,11
